Details From VHHH - Hong Kong Intl
To ZSSS - Hongqiao Intl
Flight Number -
Tags Decoded
Created
Modified
Stats Distance 667 nm / 1,236 km
Max Altitude 0 ft / 0 m
Waypoints 2
Social Downloads 0
Likes 0
Share VATSIM

Download

Looking for another format? Having issues loading an existing format? Contact us
Advertisement - Login to hide

Notes

Decoded

Route

VHHH ZSSS

ID Type Via Altitude Latitude Longitude Leg Dist Tot Dist Heading (true) Name
O VHHH APT - 0 ft / 0 m 22.29628˚ 113.89799˚ - 0 nm - -
O ZSSS APT - 0 ft / 0 m 31.21325˚ 121.33544˚ 667 nm 667 nm 35° / 38° -

Altitude Profile

Advertisement - Login to hide

Weather


0- 5 10 15 20 25 30 35+ Temperature / ° C

Clouds and Precipitation
Forecast for 2018-05-22 00:00 UTC. Updated 9 minutes ago

Ground ~20,000 ft ~40,000 ft Winds

VHHH

Details ICAO VHHH (HKG)
Name Hong Kong Intl
Region Hong Kong
Timezone Unknown (UTC+0.0)
Stats Elevation 28 ft / 9 m (AMSL)
Location 22.308995° 113.914610°
Runways 2
Magnetic Variation 2.850° W

METAR

VHHH 212300Z 32003KT 9999 FEW018 30/23 Q1011 NOSIG

Decode

TAF

TAF VHHH 211700Z 2118/2224 VRB05KT 9999 FEW025 TX35/2206Z TN28/2120Z TN27/2220Z TEMPO 2118/2124 17010KT TEMPO 2202/2211 22010KT TEMPO 2211/2216 18010KT TEMPO 2216/2224 25010KT

Decode

Departure Runways

ID Width Length Bearing (true) Bearing (mag) Surface Threshold Offset Overrun Length
07L 197 ft / 60 m 12,457 ft / 3,797 m 70.79° 73.64° Asphalt 564 ft / 172 m 866 ft / 264 m
07R 197 ft / 60 m 12,458 ft / 3,797 m 70.79° 73.64° Asphalt 525 ft / 160 m 886 ft / 270 m
25L 197 ft / 60 m 12,458 ft / 3,797 m 250.80° 253.65° Asphalt 0 ft / 0 m 840 ft / 256 m
25R 197 ft / 60 m 12,457 ft / 3,797 m 250.80° 253.65° Asphalt 581 ft / 177 m 860 ft / 262 m

ZSSS

Details ICAO ZSSS (SHA)
Name HONGQIAO INTL
Region China
Timezone Asia/Shanghai (UTC+8.0)
Stats Elevation 10 ft / 3 m (AMSL)
Location 31.197875° 121.336319°
Runways 1
Magnetic Variation 5.950° W

METAR

ZSSS 212300Z 13004MPS 5000 BR BKN005 OVC040 22/21 Q1010 NOSIG

Decode

TAF

Not found

Destination Runways

ID Width Length Bearing (true) Bearing (mag) Surface Threshold Offset Overrun Length
18 190 ft / 58 m 11,234 ft / 3,424 m 177.21° 183.16° Asphalt 657 ft / 200 m 520 ft / 159 m
36 190 ft / 58 m 11,234 ft / 3,424 m 357.21° 3.16° Asphalt 657 ft / 200 m 520 ft / 159 m

Approach Navaids

Runway Type Ident Frequency Range Bearing (true) Bearing (mag) Slope Elevation
18 Localiser IPK 109.10 MHz 18 nm / 33 km 177.03° 182.98° - 10 ft / 3 m (AMSL)
18 Glidescope IPK 109.10 MHz 10 nm / 19 km 177.21° 183.16° 3.00° 8 ft / 2 m (AMSL)
36 Localiser IWB 110.30 MHz 18 nm / 33 km 356.95° 2.90° - 8 ft / 2 m (AMSL)
36 Glidescope IWB 110.30 MHz 10 nm / 19 km 357.21° 3.16° 3.00° 10 ft / 3 m (AMSL)

Popular Alternatives